Terminal Aerodrome Forecast
Issued by NWS

Home | Current Version | Previous Version | Text Only | Print | Product List | Glossary On
Versions: 1 2 3 4 5 6 7 8 9 10 11 12 13 14 15 16 17 18 19 20 21
000
FTAK31 PAJN 041723
TAFAKT
TAF
PAKT 041723Z 0418/0518 13007KT P6SM SCT200
     FM042000 14011KT P6SM BKN110
     FM050700 14009KT P6SM OVC060
     FM051200 15010G18KT 6SM -RA BKN025 OVC040 WS020/15025KT
     FM051700 15012G22KT 6SM -RA BR BKN020 OVC035 WS020/15030KT
      AMD LTD TO CLD VIS AND WIND 0506/0515=

USA.gov is the U.S. government's official web portal to all federal, state and local government web resources and services.